Time;durP1;ratioP1;P1;durP2;ratioP2;P2;SDS_P1;SDS_P2;PMS_P1;PMS_P2;Temp;Humidity;BMP_temperature;BMP_pressure;BME280_temperature;BME280_humidity;BME280_pressure;Samples;Min_cycle;Max_cycle;Signal;HPM_P1;HPM_P2
2022/12/05 00:01:13;;;;;;;13.53;12.40;;;;;;;4.59;100.00;93670.41;5109412;28;20220;-70
2022/12/05 00:03:38;;;;;;;14.40;13.30;;;;;;;4.46;100.00;93662.81;5109682;28;20188;-70
2022/12/05 00:06:04;;;;;;;15.23;14.03;;;;;;;4.51;100.00;93673.28;5109743;28;20295;-70
2022/12/05 00:08:29;;;;;;;14.63;13.60;;;;;;;4.54;100.00;93680.63;5100047;28;20212;-70
2022/12/05 00:10:54;;;;;;;13.80;12.70;;;;;;;4.43;100.00;93673.59;5103406;28;20232;-70
2022/12/05 00:13:20;;;;;;;14.53;13.43;;;;;;;4.41;100.00;93688.50;5101503;28;20200;-70
2022/12/05 00:15:45;;;;;;;13.63;12.53;;;;;;;4.42;100.00;93684.13;5110438;28;20232;-72
2022/12/05 00:18:10;;;;;;;13.23;12.33;;;;;;;4.43;100.00;93667.59;5097408;28;20196;-72
2022/12/05 00:20:36;;;;;;;14.57;13.37;;;;;;;4.46;100.00;93683.50;5109945;28;20227;-72
2022/12/05 00:23:01;;;;;;;15.47;14.10;;;;;;;4.49;100.00;93675.31;5105244;28;20200;-72
2022/12/05 00:25:27;;;;;;;13.47;12.43;;;;;;;4.34;100.00;93679.25;5106497;28;20851;-71
2022/12/05 00:27:52;;;;;;;13.63;12.53;;;;;;;4.43;100.00;93685.69;5098954;28;20733;-71
2022/12/05 00:30:18;;;;;;;14.63;13.53;;;;;;;4.61;100.00;93668.41;5104539;28;20241;-71
2022/12/05 00:32:43;;;;;;;15.13;13.83;;;;;;;4.52;100.00;93677.47;5110646;28;20235;-72
2022/12/05 00:35:08;;;;;;;15.57;14.17;;;;;;;4.39;100.00;93669.81;5089491;28;20184;-72
2022/12/05 00:37:34;;;;;;;16.83;15.23;;;;;;;4.47;100.00;93684.25;5105640;28;20299;-73
2022/12/05 00:39:59;;;;;;;15.27;13.97;;;;;;;4.37;100.00;93686.56;5104899;28;20187;-70
2022/12/05 00:42:25;;;;;;;16.33;14.73;;;;;;;4.45;100.00;93688.88;5109626;28;20216;-73
2022/12/05 00:44:50;;;;;;;18.23;16.33;;;;;;;4.59;100.00;93683.31;5104264;28;20172;-72
2022/12/05 00:47:16;;;;;;;16.97;15.27;;;;;;;4.47;100.00;93685.06;5107071;28;20295;-73
2022/12/05 00:49:41;;;;;;;16.87;15.40;;;;;;;4.47;100.00;93697.97;5103138;28;20180;-70
2022/12/05 00:52:06;;;;;;;20.40;17.17;;;;;;;4.57;100.00;93700.06;5098868;28;20246;-72
2022/12/05 00:54:32;;;;;;;17.80;16.03;;;;;;;4.40;100.00;93693.91;5109194;28;20245;-69
2022/12/05 00:56:57;;;;;;;18.50;15.63;;;;;;;4.23;100.00;93688.50;5101018;28;20325;-69
2022/12/05 00:59:22;;;;;;;18.60;16.67;;;;;;;4.33;100.00;93675.84;5109530;28;20188;-69
2022/12/05 01:01:50;;;;;;;17.73;16.13;;;;;;;4.27;100.00;93665.56;5102921;28;20231;-67
2022/12/05 01:04:18;;;;;;;15.70;14.20;;;;;;;4.36;100.00;93667.66;5107966;28;20203;-67
2022/12/05 01:06:44;;;;;;;16.53;14.93;;;;;;;4.19;100.00;93648.56;5108854;28;20216;-67
2022/12/05 01:09:13;;;;;;;17.07;14.53;;;;;;;4.28;100.00;93667.94;5107005;28;20200;-67
2022/12/05 01:11:38;;;;;;;15.83;14.37;;;;;;;4.29;100.00;93671.34;5100304;28;20212;-67
2022/12/05 01:14:04;;;;;;;16.83;14.87;;;;;;;4.20;100.00;93663.06;5097167;28;20222;-67
2022/12/05 01:16:33;;;;;;;15.47;14.00;;;;;;;4.07;100.00;93668.38;5097022;28;20216;-67
2022/12/05 01:19:01;;;;;;;19.03;16.27;;;;;;;4.08;100.00;93672.53;5108660;28;20179;-67
2022/12/05 01:21:27;;;;;;;16.33;14.97;;;;;;;4.05;100.00;93660.03;5090278;28;20227;-67
2022/12/05 01:23:52;;;;;;;16.30;14.87;;;;;;;4.13;100.00;93672.69;5103306;28;20193;-67
2022/12/05 01:26:20;;;;;;;16.57;14.83;;;;;;;4.23;100.00;93667.81;5096478;28;20226;-67
2022/12/05 01:28:46;;;;;;;16.97;15.23;;;;;;;4.27;100.00;93666.38;5104099;28;20276;-67
2022/12/05 01:31:21;;;;;;;16.00;14.50;;;;;;;4.23;100.00;93660.06;5108175;28;20246;-67
2022/12/05 01:33:47;;;;;;;18.20;15.40;;;;;;;4.35;100.00;93658.34;5099413;28;20179;-68
2022/12/05 01:36:12;;;;;;;17.00;15.30;;;;;;;4.32;100.00;93657.97;5099610;28;20231;-67
2022/12/05 01:38:41;;;;;;;17.87;16.17;;;;;;;4.30;100.00;93647.84;5100393;28;20180;-67
2022/12/05 01:41:12;;;;;;;17.57;15.77;;;;;;;4.41;100.00;93641.97;5106151;28;20235;-67
2022/12/05 01:43:59;;;;;;;17.40;15.53;;;;;;;4.38;100.00;93647.56;5102564;28;20219;-67
2022/12/05 01:46:26;;;;;;;17.30;15.67;;;;;;;4.20;100.00;93644.97;5102696;28;20322;-67
2022/12/05 01:48:55;;;;;;;19.07;15.67;;;;;;;3.98;100.00;93635.25;5101993;28;20242;-67
2022/12/05 01:51:22;;;;;;;18.00;16.10;;;;;;;3.73;100.00;93629.31;5104224;28;20220;-67
2022/12/05 01:53:47;;;;;;;19.90;16.60;;;;;;;3.60;100.00;93616.53;5096946;28;20172;-67
2022/12/05 01:56:13;;;;;;;20.47;17.23;;;;;;;3.70;100.00;93643.47;5107630;28;20224;-67
2022/12/05 01:58:41;;;;;;;19.30;17.27;;;;;;;3.51;100.00;93639.25;5098238;28;20192;-67
2022/12/05 02:01:06;;;;;;;20.20;17.30;;;;;;;3.41;100.00;93638.13;5104198;28;20253;-67
2022/12/05 02:03:32;;;;;;;21.40;17.97;;;;;;;3.41;100.00;93633.75;5108167;28;20192;-71
2022/12/05 02:06:00;;;;;;;22.07;18.23;;;;;;;3.29;100.00;93625.09;5108228;28;20227;-67
2022/12/05 02:08:27;;;;;;;22.83;17.93;;;;;;;3.37;100.00;93644.69;5103122;28;20268;-67
2022/12/05 02:10:55;;;;;;;21.77;17.23;;;;;;;3.18;100.00;93628.34;5100853;28;20231;-67
2022/12/05 02:13:32;;;;;;;19.40;17.17;;;;;;;3.17;100.00;93637.91;5109076;28;20272;-70
2022/12/05 02:16:04;;;;;;;17.90;15.73;;;;;;;3.12;100.00;93639.50;5096063;28;20228;-67
2022/12/05 02:18:45;;;;;;;18.20;16.20;;;;;;;3.26;100.00;93643.59;5105570;28;20177;-67
2022/12/05 02:21:28;;;;;;;17.60;15.90;;;;;;;3.09;100.00;93642.50;5096046;28;20311;-67
2022/12/05 02:23:56;;;;;;;16.77;15.07;;;;;;;3.00;100.00;93646.34;5103488;28;20191;-69
2022/12/05 02:26:53;;;;;;;17.57;15.87;;;;;;;3.10;100.00;93646.66;5102395;28;20724;-68
2022/12/05 02:29:29;;;;;;;15.70;14.30;;;;;;;3.39;100.00;93650.44;5106331;28;20208;-68
2022/12/05 02:32:06;;;;;;;16.33;14.73;;;;;;;3.45;100.00;93645.25;5107808;28;20227;-68
2022/12/05 02:34:39;;;;;;;16.17;14.77;;;;;;;3.44;100.00;93648.81;5107156;28;20185;-68
2022/12/05 02:37:04;;;;;;;14.87;13.67;;;;;;;3.45;100.00;93647.84;5099634;28;20249;-68
2022/12/05 02:39:39;;;;;;;16.13;14.93;;;;;;;3.58;100.00;93645.13;5089740;28;20208;-68
2022/12/05 02:42:13;;;;;;;16.20;14.90;;;;;;;3.54;100.00;93632.84;5108391;28;20227;-68
2022/12/05 02:44:55;;;;;;;15.90;14.63;;;;;;;3.66;100.00;93644.88;5096138;28;20202;-67
2022/12/05 02:47:25;;;;;;;14.63;13.53;;;;;;;3.48;100.00;93621.59;5099929;28;20220;-68
2022/12/05 02:49:52;;;;;;;14.37;13.07;;;;;;;3.68;100.00;93627.38;5112267;28;20215;-68
2022/12/05 02:52:18;;;;;;;13.67;12.63;;;;;;;3.86;100.00;93629.22;5099616;28;20220;-68
2022/12/05 02:54:47;;;;;;;13.13;11.93;;;;;;;3.69;100.00;93602.38;5108918;28;20187;-67
2022/12/05 02:57:14;;;;;;;13.00;11.90;;;;;;;3.53;100.00;93621.75;5104849;28;20238;-67
2022/12/05 02:59:39;;;;;;;13.67;12.77;;;;;;;3.62;100.00;93617.91;5113044;28;20171;-68
2022/12/05 03:02:08;;;;;;;12.93;11.97;;;;;;;3.75;100.00;93620.34;5110854;28;20241;-68
2022/12/05 03:04:34;;;;;;;15.03;13.93;;;;;;;3.65;100.00;93612.31;5112385;28;20177;-67
2022/12/05 03:07:07;;;;;;;13.17;12.27;;;;;;;3.63;100.00;93606.56;5107655;28;20246;-68
2022/12/05 03:09:38;;;;;;;14.30;13.20;;;;;;;3.50;100.00;93593.78;5095179;28;20208;-67
2022/12/05 03:12:33;;;;;;;13.80;12.87;;;;;;;3.71;100.00;93614.06;5098572;28;20204;-68
2022/12/05 03:15:15;;;;;;;12.63;11.73;;;;;;;3.64;100.00;93623.66;5087906;28;21014;-68
2022/12/05 03:17:47;;;;;;;13.13;12.33;;;;;;;3.64;100.00;93623.66;5105378;28;20211;-68
2022/12/05 03:20:18;;;;;;;12.57;11.67;;;;;;;3.58;100.00;93621.13;5108764;28;20188;-69
2022/12/05 03:22:51;;;;;;;12.47;11.47;;;;;;;3.73;100.00;93627.53;5102097;28;20208;-66
2022/12/05 03:25:17;;;;;;;13.83;12.63;;;;;;;3.99;100.00;93622.13;5111903;28;20188;-68
2022/12/05 03:27:52;;;;;;;12.70;11.90;;;;;;;3.99;100.00;93629.88;5109680;28;20243;-67
2022/12/05 03:30:21;;;;;;;12.50;11.70;;;;;;;3.84;100.00;93629.44;5094709;28;20183;-68
2022/12/05 03:33:06;;;;;;;12.77;11.63;;;;;;;3.96;100.00;93637.25;5089681;28;20291;-69
2022/12/05 03:35:43;;;;;;;12.97;12.07;;;;;;;4.01;100.00;93627.88;5104048;28;20188;-67
2022/12/05 03:38:29;;;;;;;12.23;11.33;;;;;;;4.03;100.00;93636.19;5110122;28;20191;-68
2022/12/05 03:41:13;;;;;;;11.90;11.20;;;;;;;3.90;100.00;93638.91;5098054;28;20276;-68
2022/12/05 03:43:58;;;;;;;12.90;12.10;;;;;;;4.02;100.00;93629.44;5111669;28;20211;-68
2022/12/05 03:46:31;;;;;;;11.93;11.13;;;;;;;3.96;100.00;93632.09;5099651;28;20238;-68
2022/12/05 03:48:56;;;;;;;12.97;12.07;;;;;;;3.96;100.00;93637.25;5111367;28;20211;-68
2022/12/05 03:51:27;;;;;;;13.30;12.40;;;;;;;3.92;100.00;93642.06;5111285;28;20235;-68
2022/12/05 03:53:58;;;;;;;13.23;12.27;;;;;;;3.98;100.00;93645.59;5105676;28;20184;-67
2022/12/05 03:56:34;;;;;;;16.07;14.47;;;;;;;3.79;100.00;93636.22;5110864;28;20658;-68
2022/12/05 03:59:22;;;;;;;15.10;13.90;;;;;;;3.95;100.00;93635.69;5106495;28;20176;-67
2022/12/05 04:01:50;;;;;;;17.23;15.30;;;;;;;4.09;100.00;93639.72;5105371;28;20247;-68
2022/12/05 04:04:29;;;;;;;17.13;15.50;;;;;;;4.22;100.00;93642.97;5108540;28;20191;-69
2022/12/05 04:06:56;;;;;;;18.13;16.40;;;;;;;4.10;100.00;93624.00;5109159;28;20231;-68
2022/12/05 04:09:31;;;;;;;21.80;17.37;;;;;;;4.16;100.00;93623.16;5111158;28;20218;-71
2022/12/05 04:12:02;;;;;;;17.77;16.00;;;;;;;4.16;100.00;93630.91;5109796;28;20848;-70
2022/12/05 04:14:33;;;;;;;18.97;17.13;;;;;;;4.11;100.00;93612.66;5111423;28;20203;-71
2022/12/05 04:17:03;;;;;;;19.33;17.30;;;;;;;4.18;100.00;93621.16;5102963;28;20228;-70
2022/12/05 04:22:28;;;;;;;18.87;17.07;;;;;;;4.06;100.00;93591.06;5107889;28;20257;-71
2022/12/05 04:27:58;;;;;;;18.03;16.30;;;;;;;4.34;100.00;93610.22;5110467;28;20251;-70
2022/12/05 04:30:28;;;;;;;18.37;16.53;;;;;;;4.37;100.00;93609.03;5102270;28;20188;-70
2022/12/05 04:33:15;;;;;;;20.00;17.90;;;;;;;4.35;100.00;93622.16;5108228;28;20199;-70
2022/12/05 04:35:52;;;;;;;21.83;19.30;;;;;;;4.23;100.00;93608.38;5091036;28;20223;-69
2022/12/05 04:38:28;;;;;;;24.60;20.07;;;;;;;4.43;100.00;93618.50;5104095;28;20180;-70
2022/12/05 04:41:02;;;;;;;24.73;20.03;;;;;;;4.37;100.00;93633.06;5098492;28;20223;-70
2022/12/05 04:43:31;;;;;;;19.10;17.27;;;;;;;4.31;100.00;93622.81;5110565;28;20207;-70
2022/12/05 04:45:59;;;;;;;19.07;17.13;;;;;;;4.33;100.00;93633.69;5109522;28;20250;-72
2022/12/05 04:48:27;;;;;;;20.03;17.53;;;;;;;4.34;100.00;93630.91;5110357;28;20203;-71
2022/12/05 04:50:55;;;;;;;19.43;16.80;;;;;;;4.44;100.00;93630.41;5091541;28;20227;-68
2022/12/05 04:53:25;;;;;;;18.10;16.33;;;;;;;4.32;100.00;93632.94;5105153;28;20172;-68
2022/12/05 04:55:54;;;;;;;20.20;17.70;;;;;;;4.30;100.00;93632.34;5108959;28;20249;-68
2022/12/05 04:58:22;;;;;;;19.30;17.30;;;;;;;4.35;100.00;93621.34;5087568;28;20255;-67
2022/12/05 05:00:53;;;;;;;19.07;17.07;;;;;;;4.41;100.00;93636.00;5108501;28;20251;-68
2022/12/05 05:03:39;;;;;;;18.47;16.57;;;;;;;4.43;100.00;93639.16;5102254;28;20598;-68
2022/12/05 05:06:06;;;;;;;18.70;17.00;;;;;;;4.38;100.00;93632.06;5108121;28;20224;-67
2022/12/05 05:08:31;;;;;;;17.20;15.60;;;;;;;4.45;100.00;93621.66;5107994;28;20200;-70
2022/12/05 05:10:56;;;;;;;18.60;16.57;;;;;;;4.56;100.00;93642.38;5106954;28;20219;-70
2022/12/05 05:13:22;;;;;;;18.33;16.53;;;;;;;4.24;100.00;93646.13;5108498;28;20183;-70
2022/12/05 05:15:47;;;;;;;18.40;16.60;;;;;;;4.35;100.00;93642.84;5105610;28;20219;-70
2022/12/05 05:18:12;;;;;;;19.17;17.17;;;;;;;4.29;100.00;93641.13;5108944;28;20211;-69
2022/12/05 05:20:38;;;;;;;18.87;16.83;;;;;;;4.31;100.00;93652.00;5108649;28;20228;-71
2022/12/05 05:23:03;;;;;;;16.80;15.23;;;;;;;4.46;100.00;93652.47;5109553;28;20184;-72
2022/12/05 05:25:29;;;;;;;20.37;16.87;;;;;;;4.51;100.00;93652.59;5107296;28;20212;-71
2022/12/05 05:27:55;;;;;;;17.40;15.67;;;;;;;4.58;100.00;93660.28;5109178;28;20226;-70
2022/12/05 05:30:23;;;;;;;18.43;16.73;;;;;;;4.74;100.00;93660.50;5100876;28;20205;-71
2022/12/05 05:32:48;;;;;;;17.43;15.73;;;;;;;4.60;100.00;93660.84;5093806;28;20577;-71
2022/12/05 05:35:14;;;;;;;16.53;15.03;;;;;;;4.42;100.00;93653.88;5108359;28;20196;-71
2022/12/05 05:37:40;;;;;;;16.43;14.93;;;;;;;4.41;100.00;93659.28;5108691;28;20195;-70
2022/12/05 05:40:07;;;;;;;15.10;13.90;;;;;;;4.54;100.00;93659.94;5108941;28;20217;-70
2022/12/05 05:42:33;;;;;;;16.07;14.47;;;;;;;4.16;100.00;93659.31;5099246;28;20223;-71
2022/12/05 05:44:58;;;;;;;17.10;15.47;;;;;;;4.40;100.00;93663.66;5098773;28;20180;-71
2022/12/05 05:47:24;;;;;;;16.57;15.13;;;;;;;4.22;100.00;93652.50;5105475;28;20232;-70
2022/12/05 05:49:49;;;;;;;16.30;15.17;;;;;;;4.09;100.00;93662.97;5108680;28;20188;-71
2022/12/05 05:52:14;;;;;;;16.23;14.97;;;;;;;4.11;100.00;93651.41;5098670;28;20214;-73
2022/12/05 05:54:40;;;;;;;16.47;14.97;;;;;;;4.11;100.00;93619.66;5098648;28;20184;-71
2022/12/05 05:57:06;;;;;;;15.40;14.10;;;;;;;4.51;100.00;93668.09;5102018;28;20224;-71
2022/12/05 05:59:31;;;;;;;14.30;13.23;;;;;;;4.52;100.00;93667.09;5100418;28;20280;-70
2022/12/05 06:01:57;;;;;;;14.63;13.33;;;;;;;4.50;100.00;93676.06;5094008;28;20220;-70
2022/12/05 06:04:22;;;;;;;15.87;14.47;;;;;;;4.54;100.00;93667.69;5108652;28;20240;-71
2022/12/05 06:06:47;;;;;;;14.83;13.63;;;;;;;4.47;100.00;93669.53;5107837;28;20683;-72
2022/12/05 06:09:13;;;;;;;14.87;13.77;;;;;;;4.41;100.00;93680.75;5108937;28;20268;-71
2022/12/05 06:11:38;;;;;;;15.10;13.80;;;;;;;4.42;100.00;93700.41;5102898;28;20216;-71
2022/12/05 06:14:03;;;;;;;15.17;13.97;;;;;;;4.43;100.00;93676.16;5108580;28;20184;-71
2022/12/05 06:16:30;;;;;;;15.07;13.77;;;;;;;4.54;100.00;93688.38;5107333;28;20231;-71
2022/12/05 06:18:57;;;;;;;15.50;14.03;;;;;;;4.61;100.00;93696.03;5108894;28;20188;-72
2022/12/05 06:21:22;;;;;;;16.10;14.73;;;;;;;4.67;100.00;93683.03;5107964;28;20244;-71
2022/12/05 06:23:48;;;;;;;15.23;13.83;;;;;;;4.73;100.00;93691.75;5111535;28;20191;-72
2022/12/05 06:26:16;;;;;;;14.70;13.50;;;;;;;4.80;100.00;93682.91;5111487;28;20228;-72
2022/12/05 06:28:43;;;;;;;20.20;15.63;;;;;;;4.86;100.00;93691.59;5111829;28;20247;-71
2022/12/05 06:31:10;;;;;;;16.73;15.23;;;;;;;4.89;100.00;93691.94;5106241;28;20228;-71
2022/12/05 06:33:36;;;;;;;16.80;15.07;;;;;;;4.54;100.00;93664.31;5112735;28;20270;-71
2022/12/05 06:36:05;;;;;;;16.43;14.63;;;;;;;4.75;100.00;93694.91;5111050;28;20228;-71
2022/12/05 06:38:31;;;;;;;16.40;14.90;;;;;;;4.89;100.00;93697.13;5102574;28;20192;-70
2022/12/05 06:40:56;;;;;;;16.13;14.60;;;;;;;4.90;100.00;93683.16;5108090;28;20232;-70
2022/12/05 06:43:22;;;;;;;17.57;15.27;;;;;;;5.04;100.00;93698.53;5102852;28;20211;-71
2022/12/05 06:45:47;;;;;;;16.30;14.80;;;;;;;4.98;100.00;93693.22;5108266;28;20287;-71
2022/12/05 06:48:13;;;;;;;18.70;15.60;;;;;;;5.01;100.00;93693.81;5111013;28;20211;-70
2022/12/05 06:50:38;;;;;;;16.83;15.33;;;;;;;5.09;100.00;93702.03;5110689;28;20220;-71
2022/12/05 06:53:03;;;;;;;18.00;16.30;;;;;;;5.07;100.00;93693.72;5104811;28;20184;-71
2022/12/05 06:55:29;;;;;;;18.13;16.33;;;;;;;5.24;100.00;93693.91;5107659;28;20252;-70
2022/12/05 06:57:54;;;;;;;18.10;16.33;;;;;;;5.37;100.00;93685.97;5110834;28;20209;-71
2022/12/05 07:03:03;;;;;;;21.87;17.60;;;;;;;5.53;100.00;93687.91;5105392;28;20186;-71
2022/12/05 07:05:29;;;;;;;20.13;18.10;;;;;;;5.55;100.00;93691.06;5103734;28;20172;-73
2022/12/05 07:07:54;;;;;;;17.77;15.97;;;;;;;5.69;100.00;93700.25;5112167;28;20222;-70
2022/12/05 07:10:19;;;;;;;19.23;17.33;;;;;;;5.80;100.00;93678.75;5108969;28;20213;-72
2022/12/05 07:12:45;;;;;;;19.47;17.43;;;;;;;5.91;100.00;93703.94;5111913;28;20192;-71
2022/12/05 07:15:10;;;;;;;18.03;16.20;;;;;;;5.97;100.00;93700.44;5102432;28;20196;-71
2022/12/05 07:17:37;;;;;;;15.20;13.90;;;;;;;5.80;99.58;93663.19;5102788;28;20276;-70
2022/12/05 07:20:04;;;;;;;13.07;12.00;;;;;;;6.02;99.35;93701.34;5110995;28;20204;-70
2022/12/05 07:22:29;;;;;;;15.77;14.47;;;;;;;5.94;98.45;93664.59;5099417;28;20235;-71
2022/12/05 07:24:55;;;;;;;14.57;13.27;;;;;;;6.05;98.30;93700.13;5110725;28;20172;-72
2022/12/05 07:27:20;;;;;;;13.40;12.50;;;;;;;6.03;98.73;93699.53;5110929;28;20228;-71
2022/12/05 07:29:45;;;;;;;14.10;13.07;;;;;;;6.19;97.55;93711.84;5109513;28;20192;-70
2022/12/05 07:32:11;;;;;;;15.77;14.47;;;;;;;6.07;97.56;93700.69;5099862;28;20212;-71
2022/12/05 07:34:37;;;;;;;12.97;12.07;;;;;;;6.20;96.28;93719.41;5092884;28;20196;-71
2022/12/05 07:37:03;;;;;;;12.90;12.10;;;;;;;6.09;95.96;93709.00;5074545;28;20235;-71
2022/12/05 07:39:28;;;;;;;13.57;12.67;;;;;;;5.87;96.40;93700.97;5109449;28;20248;-71
2022/12/05 07:41:54;;;;;;;13.70;12.80;;;;;;;5.85;97.72;93700.41;5110648;28;20223;-71
2022/12/05 07:44:19;;;;;;;13.33;12.33;;;;;;;6.06;97.72;93720.63;5110257;28;20275;-70
2022/12/05 07:46:44;;;;;;;13.60;12.47;;;;;;;6.17;96.51;93716.47;5103814;28;20227;-71
2022/12/05 07:49:10;;;;;;;11.83;11.13;;;;;;;6.31;94.56;93716.03;5099249;28;20212;-71
2022/12/05 07:51:35;;;;;;;12.10;11.30;;;;;;;6.15;94.40;93716.69;5105764;28;20243;-70
2022/12/05 07:54:01;;;;;;;11.87;11.17;;;;;;;5.79;96.10;93719.41;5110429;28;20184;-70
2022/12/05 07:56:27;;;;;;;12.57;11.70;;;;;;;5.95;96.67;93728.38;5107428;28;20219;-72
2022/12/05 07:58:53;;;;;;;12.47;11.50;;;;;;;5.89;95.89;93713.72;5108110;28;20252;-70
2022/12/05 08:01:20;;;;;;;13.50;12.40;;;;;;;5.92;96.75;93723.63;5110406;28;20220;-70
2022/12/05 08:03:46;;;;;;;13.37;12.20;;;;;;;6.01;96.19;93722.28;5109427;28;20219;-73
2022/12/05 08:06:14;;;;;;;12.33;11.53;;;;;;;6.00;96.73;93720.72;5109494;28;20258;-71
2022/12/05 08:08:40;;;;;;;11.93;11.13;;;;;;;6.11;96.51;93722.53;5098500;28;20212;-72
2022/12/05 08:11:09;;;;;;;11.53;10.73;;;;;;;6.22;95.29;93716.59;5091992;28;20247;-71
2022/12/05 08:13:35;;;;;;;11.77;11.00;;;;;;;6.30;95.35;93708.47;5092330;28;20187;-70
2022/12/05 08:16:05;;;;;;;11.87;11.13;;;;;;;6.37;93.48;93712.53;5108614;28;20215;-71
2022/12/05 08:18:31;;;;;;;12.03;11.33;;;;;;;6.42;93.10;93714.44;5108685;28;20225;-71
2022/12/05 08:21:01;;;;;;;13.57;12.53;;;;;;;6.46;93.41;93715.56;5104550;28;20291;-71
2022/12/05 08:23:29;;;;;;;12.93;12.03;;;;;;;6.54;92.29;93723.00;5109479;28;20223;-72
2022/12/05 08:25:54;;;;;;;12.90;11.87;;;;;;;6.32;93.19;93709.00;5109231;28;20296;-70
2022/12/05 08:28:19;;;;;;;13.10;12.13;;;;;;;6.31;93.90;93723.00;5106338;28;20228;-72
2022/12/05 08:30:45;;;;;;;13.67;12.83;;;;;;;6.30;94.54;93726.63;5109088;28;20224;-71
2022/12/05 08:33:10;;;;;;;14.60;13.53;;;;;;;6.37;94.76;93728.09;5091771;28;20248;-71
2022/12/05 08:35:36;;;;;;;13.97;13.07;;;;;;;6.25;94.64;93729.91;5103300;28;20232;-71
2022/12/05 08:38:01;;;;;;;13.80;12.70;;;;;;;6.12;95.44;93717.13;5090079;28;20187;-72
2022/12/05 08:40:27;;;;;;;16.27;14.10;;;;;;;6.04;96.68;93727.03;5103203;28;20191;-73
2022/12/05 08:42:52;;;;;;;13.93;12.93;;;;;;;6.17;96.33;93719.06;5109578;28;20179;-74
2022/12/05 08:45:18;;;;;;;14.70;13.50;;;;;;;6.05;96.79;93708.69;5107396;28;20192;-73
2022/12/05 08:47:43;;;;;;;13.47;12.30;;;;;;;6.15;96.56;93723.66;5108629;28;20196;-73
2022/12/05 08:50:08;;;;;;;13.57;12.57;;;;;;;6.18;96.50;93702.47;5088315;28;20188;-72
2022/12/05 08:52:34;;;;;;;14.03;12.83;;;;;;;6.35;96.13;93708.59;5106432;28;20211;-74
2022/12/05 08:54:59;;;;;;;14.13;12.77;;;;;;;6.52;95.49;93720.63;5107471;28;20215;-74
2022/12/05 08:57:24;;;;;;;13.50;12.47;;;;;;;6.58;93.10;93706.00;5095205;28;20223;-72
2022/12/05 08:59:50;;;;;;;13.33;12.33;;;;;;;6.50;93.98;93727.06;5106371;28;20184;-69
2022/12/05 09:02:15;;;;;;;12.97;12.17;;;;;;;6.60;93.14;93722.09;5107651;28;20838;-71
2022/12/05 09:04:41;;;;;;;12.90;11.87;;;;;;;6.45;93.51;93719.19;5100002;28;20184;-72
2022/12/05 09:07:07;;;;;;;13.60;12.70;;;;;;;6.40;94.76;93716.47;5101455;28;20272;-72
2022/12/05 09:09:32;;;;;;;14.43;13.27;;;;;;;6.45;95.22;93727.75;5098048;28;20924;-74
2022/12/05 09:11:59;;;;;;;17.63;16.37;;;;;;;6.43;94.78;93695.25;5083818;28;20225;-78
2022/12/05 09:14:24;;;;;;;15.77;14.77;;;;;;;6.71;93.65;93723.13;5074565;28;20283;-73
2022/12/05 09:16:50;;;;;;;15.20;14.20;;;;;;;6.69;92.60;93731.13;5078966;28;20224;-72
2022/12/05 09:19:26;;;;;;;15.70;14.60;;;;;;;6.62;93.17;93730.44;5078202;28;20193;-72
2022/12/05 09:21:52;;;;;;;13.10;12.13;;;;;;;6.45;94.45;93722.56;5105386;28;20218;-72
2022/12/05 09:24:18;;;;;;;12.90;12.00;;;;;;;6.43;94.08;93674.50;5099987;28;20192;-72
2022/12/05 09:26:44;;;;;;;12.87;11.97;;;;;;;6.72;93.08;93691.75;5101138;28;20230;-73
2022/12/05 09:29:11;;;;;;;13.27;12.23;;;;;;;6.39;93.79;93701.94;5109365;28;20230;-72
2022/12/05 09:31:37;;;;;;;13.53;12.57;;;;;;;6.01;95.20;93660.88;5107820;28;20220;-73
2022/12/05 09:34:03;;;;;;;16.07;14.87;;;;;;;6.41;94.50;93711.06;5099651;28;20180;-73
2022/12/05 09:36:30;;;;;;;13.10;12.27;;;;;;;6.46;93.25;93705.97;5081165;28;20228;-73
2022/12/05 09:38:59;;;;;;;13.93;13.03;;;;;;;6.30;94.75;93703.28;5109029;28;20176;-73
2022/12/05 09:44:35;;;;;;;13.70;12.53;;;;;;;6.18;95.20;93703.28;5104775;28;20231;-74
2022/12/05 09:47:20;;;;;;;13.40;12.57;;;;;;;6.29;95.79;93696.50;5107745;28;20230;-73
2022/12/05 09:49:50;;;;;;;13.40;12.47;;;;;;;6.25;95.35;93695.38;5104059;28;20200;-73
2022/12/05 09:52:43;;;;;;;12.93;11.90;;;;;;;6.20;95.71;93685.69;5107957;28;20258;-73
2022/12/05 09:55:14;;;;;;;12.90;11.90;;;;;;;6.01;96.97;93691.19;5087331;28;20185;-74
2022/12/05 09:57:47;;;;;;;14.10;12.73;;;;;;;6.47;94.26;93676.41;5108702;28;20206;-73
2022/12/05 10:00:13;;;;;;;14.03;12.97;;;;;;;6.47;92.94;93675.66;5105410;28;20176;-72
2022/12/05 10:02:56;;;;;;;14.17;13.17;;;;;;;6.50;93.72;93690.75;5113742;28;20222;-73
2022/12/05 10:05:37;;;;;;;15.37;14.07;;;;;;;6.57;92.98;93685.47;5100020;28;20191;-73
2022/12/05 10:08:16;;;;;;;14.63;13.47;;;;;;;6.63;92.49;93687.91;5113295;28;20211;-73
2022/12/05 10:11:04;;;;;;;13.97;12.87;;;;;;;6.61;92.80;93681.38;5104211;28;20293;-74
2022/12/05 10:13:44;;;;;;;12.97;12.17;;;;;;;6.42;93.05;93665.16;5110199;28;20206;-73
2022/12/05 10:16:28;;;;;;;14.00;12.80;;;;;;;6.21;94.07;93665.75;5092506;28;20239;-73
2022/12/05 10:19:05;;;;;;;12.70;11.90;;;;;;;6.06;94.07;93647.25;5100894;28;20172;-73
2022/12/05 10:21:54;;;;;;;13.37;12.47;;;;;;;6.18;95.01;93673.94;5108187;28;20220;-73
2022/12/05 10:24:44;;;;;;;13.43;12.20;;;;;;;6.44;94.15;93660.53;5101038;28;20215;-73
2022/12/05 10:27:24;;;;;;;12.30;11.60;;;;;;;6.55;93.82;93677.91;5104226;28;20233;-73
2022/12/05 10:29:58;;;;;;;13.50;12.50;;;;;;;6.62;93.11;93668.19;5094750;28;20218;-73
2022/12/05 10:32:54;;;;;;;13.63;12.73;;;;;;;6.73;93.59;93676.97;5097456;28;20228;-73
2022/12/05 10:35:31;;;;;;;16.20;14.70;;;;;;;6.85;93.17;93678.50;5102123;28;20188;-74
2022/12/05 10:38:02;;;;;;;16.60;15.10;;;;;;;7.01;92.36;93677.81;5110369;28;20180;-72
2022/12/05 10:40:39;;;;;;;14.33;13.03;;;;;;;7.00;92.12;93657.25;5094666;28;20192;-71
2022/12/05 10:43:07;;;;;;;13.23;12.40;;;;;;;7.12;90.68;93664.00;5108160;28;20196;-73
2022/12/05 10:45:40;;;;;;;14.67;13.57;;;;;;;7.25;90.31;93671.53;5101014;28;20190;-72
2022/12/05 10:48:11;;;;;;;13.43;12.33;;;;;;;7.03;90.59;93664.59;5110316;28;20211;-72
2022/12/05 10:50:38;;;;;;;12.40;11.60;;;;;;;6.80;91.90;93657.66;5107503;28;20242;-74
2022/12/05 10:53:05;;;;;;;13.23;12.33;;;;;;;6.84;92.39;93655.38;5086126;28;20192;-73
2022/12/05 10:55:38;;;;;;;12.70;11.87;;;;;;;6.83;92.88;93659.00;5108858;28;20185;-73
2022/12/05 10:58:15;;;;;;;12.43;11.47;;;;;;;6.90;91.37;93660.44;5096761;28;20224;-73
2022/12/05 11:00:48;;;;;;;14.60;13.50;;;;;;;6.64;92.53;93624.66;5107970;28;20216;-72
2022/12/05 11:03:29;;;;;;;14.03;13.00;;;;;;;6.74;95.68;93652.59;5110359;28;20172;-73
2022/12/05 11:06:01;;;;;;;12.33;11.60;;;;;;;6.91;91.88;93656.06;5095907;28;20793;-73
2022/12/05 11:08:30;;;;;;;12.80;11.90;;;;;;;6.75;91.89;93642.00;5109361;28;20204;-73
2022/12/05 11:11:16;;;;;;;13.30;12.50;;;;;;;6.66;93.13;93640.78;5109614;28;20223;-72
2022/12/05 11:14:18;;;;;;;13.93;12.80;;;;;;;6.97;92.63;93652.53;5111009;28;20172;-70
2022/12/05 11:16:55;;;;;;;15.70;14.80;;;;;;;6.77;91.63;93628.78;5090829;28;20227;-71
2022/12/05 11:19:20;;;;;;;13.43;12.53;;;;;;;6.78;92.10;93654.50;5109621;28;20198;-72
2022/12/05 11:21:47;;;;;;;13.50;12.60;;;;;;;6.52;93.53;93642.03;5107730;28;20909;-70
2022/12/05 11:24:34;;;;;;;13.30;12.07;;;;;;;6.64;93.98;93634.22;5109343;28;20180;-73
2022/12/05 11:27:19;;;;;;;13.20;12.20;;;;;;;6.73;92.56;93622.47;5102616;28;20228;-71
2022/12/05 11:30:03;;;;;;;12.90;12.00;;;;;;;6.68;92.92;93625.75;5109308;28;20958;-72
2022/12/05 11:32:31;;;;;;;13.70;12.67;;;;;;;6.60;94.05;93618.31;5102473;28;20232;-72
2022/12/05 11:35:23;;;;;;;13.17;12.27;;;;;;;6.72;93.32;93626.88;5111144;28;20256;-72
2022/12/05 11:37:56;;;;;;;15.10;14.00;;;;;;;6.84;92.32;93619.03;5091083;28;20254;-71
2022/12/05 11:40:38;;;;;;;15.10;14.00;;;;;;;6.84;92.59;93614.66;5103895;28;20168;-71
2022/12/05 11:43:19;;;;;;;14.63;13.33;;;;;;;6.54;93.20;93599.28;5095800;28;20176;-71